sensor_id;sensor_type;location;lat;lon;timestamp;pressure;altitude;pressure_sealevel;temperature;humidity
31005;BME280;17676;52.254;4.490;2023-04-08T00:00:21;102436.63;;;10.25;100.00
31005;BME280;17676;52.254;4.490;2023-04-08T00:02:46;102447.94;;;10.29;100.00
31005;BME280;17676;52.254;4.490;2023-04-08T00:05:12;102445.06;;;10.22;100.00
31005;BME280;17676;52.254;4.490;2023-04-08T00:07:37;102446.44;;;10.26;100.00
31005;BME280;17676;52.254;4.490;2023-04-08T00:10:03;102444.56;;;10.35;100.00
31005;BME280;17676;52.254;4.490;2023-04-08T00:12:29;102445.59;;;10.34;100.00
31005;BME280;17676;52.254;4.490;2023-04-08T00:14:55;102440.66;;;10.29;100.00
31005;BME280;17676;52.254;4.490;2023-04-08T00:17:21;102440.84;;;10.28;100.00
31005;BME280;17676;52.254;4.490;2023-04-08T00:19:46;102446.06;;;10.29;100.00
31005;BME280;17676;52.254;4.490;2023-04-08T00:22:12;102435.59;;;10.26;100.00
31005;BME280;17676;52.254;4.490;2023-04-08T00:24:37;102454.72;;;10.25;100.00
31005;BME280;17676;52.254;4.490;2023-04-08T00:27:04;102448.25;;;10.18;100.00
31005;BME280;17676;52.254;4.490;2023-04-08T00:29:30;102445.41;;;10.19;100.00
31005;BME280;17676;52.254;4.490;2023-04-08T00:31:55;102441.34;;;10.23;100.00
31005;BME280;17676;52.254;4.490;2023-04-08T00:34:21;102453.53;;;10.27;100.00
31005;BME280;17676;52.254;4.490;2023-04-08T00:36:46;102448.44;;;10.24;100.00
31005;BME280;17676;52.254;4.490;2023-04-08T00:39:13;102451.50;;;10.21;100.00
31005;BME280;17676;52.254;4.490;2023-04-08T00:41:38;102454.56;;;10.26;100.00
31005;BME280;17676;52.254;4.490;2023-04-08T00:44:05;102454.56;;;10.26;100.00
31005;BME280;17676;52.254;4.490;2023-04-08T00:46:35;102453.53;;;10.27;100.00
31005;BME280;17676;52.254;4.490;2023-04-08T00:49:01;102455.22;;;10.28;100.00
31005;BME280;17676;52.254;4.490;2023-04-08T00:51:28;102456.06;;;10.29;100.00
31005;BME280;17676;52.254;4.490;2023-04-08T00:53:54;102442.69;;;10.27;100.00
31005;BME280;17676;52.254;4.490;2023-04-08T00:56:20;102452.00;;;10.25;100.00
31005;BME280;17676;52.254;4.490;2023-04-08T00:58:46;102445.06;;;10.22;100.00
31005;BME280;17676;52.254;4.490;2023-04-08T01:01:25;102447.25;;;10.27;100.00
31005;BME280;17676;52.254;4.490;2023-04-08T01:04:12;102448.13;;;10.27;100.00
31005;BME280;17676;52.254;4.490;2023-04-08T01:06:48;102453.53;;;10.27;100.00
31005;BME280;17676;52.254;4.490;2023-04-08T01:09:17;102452.00;;;10.25;100.00
31005;BME280;17676;52.254;4.490;2023-04-08T01:11:43;102446.09;;;10.21;100.00
31005;BME280;17676;52.254;4.490;2023-04-08T01:14:14;102451.31;;;10.23;100.00
31005;BME280;17676;52.254;4.490;2023-04-08T01:16:41;102449.13;;;10.18;100.00
31005;BME280;17676;52.254;4.490;2023-04-08T01:19:09;102447.44;;;10.17;100.00
31005;BME280;17676;52.254;4.490;2023-04-08T01:21:40;102453.16;;;10.14;100.00
31005;BME280;17676;52.254;4.490;2023-04-08T01:24:12;102451.66;;;10.12;100.00
31005;BME280;17676;52.254;4.490;2023-04-08T01:26:42;102459.22;;;10.08;100.00
31005;BME280;17676;52.254;4.490;2023-04-08T01:29:09;102442.44;;;9.96;100.00
31005;BME280;17676;52.254;4.490;2023-04-08T01:31:38;102459.53;;;9.97;100.00
31005;BME280;17676;52.254;4.490;2023-04-08T01:34:06;102441.91;;;9.85;100.00
31005;BME280;17676;52.254;4.490;2023-04-08T01:36:33;102456.56;;;9.82;100.00
31005;BME280;17676;52.254;4.490;2023-04-08T01:39:01;102458.78;;;9.79;100.00
31005;BME280;17676;52.254;4.490;2023-04-08T01:41:30;102457.41;;;9.75;100.00
31005;BME280;17676;52.254;4.490;2023-04-08T01:43:57;102457.22;;;9.68;100.00
31005;BME280;17676;52.254;4.490;2023-04-08T01:46:23;102457.69;;;9.64;100.00
31005;BME280;17676;52.254;4.490;2023-04-08T01:48:49;102456.72;;;9.65;100.00
31005;BME280;17676;52.254;4.490;2023-04-08T01:51:15;102455.00;;;9.64;100.00
31005;BME280;17676;52.254;4.490;2023-04-08T01:53:41;102461.09;;;9.66;100.00
31005;BME280;17676;52.254;4.490;2023-04-08T01:56:12;102460.41;;;9.64;100.00
31005;BME280;17676;52.254;4.490;2023-04-08T01:58:43;102461.25;;;9.64;100.00
31005;BME280;17676;52.254;4.490;2023-04-08T02:01:13;102468.34;;;9.65;100.00
31005;BME280;17676;52.254;4.490;2023-04-08T02:03:44;102467.84;;;9.62;100.00
31005;BME280;17676;52.254;4.490;2023-04-08T02:06:10;102473.25;;;9.62;100.00
31005;BME280;17676;52.254;4.490;2023-04-08T02:08:36;102464.44;;;9.60;100.00
31005;BME280;17676;52.254;4.490;2023-04-08T02:11:02;102470.19;;;9.57;100.00
31005;BME280;17676;52.254;4.490;2023-04-08T02:13:29;102468.81;;;9.53;100.00
31005;BME280;17676;52.254;4.490;2023-04-08T02:16:26;102473.53;;;9.51;100.00
31005;BME280;17676;52.254;4.490;2023-04-08T02:19:08;102469.44;;;9.47;100.00
31005;BME280;17676;52.254;4.490;2023-04-08T02:21:43;102474.03;;;9.46;100.00
31005;BME280;17676;52.254;4.490;2023-04-08T02:24:12;102470.09;;;9.41;100.00
31005;BME280;17676;52.254;4.490;2023-04-08T02:26:39;102472.25;;;9.37;100.00
31005;BME280;17676;52.254;4.490;2023-04-08T02:29:12;102475.81;;;9.38;100.00
31005;BME280;17676;52.254;4.490;2023-04-08T02:31:43;102478.84;;;9.35;100.00
31005;BME280;17676;52.254;4.490;2023-04-08T02:34:10;102476.44;;;9.32;100.00
31005;BME280;17676;52.254;4.490;2023-04-08T02:36:36;102482.19;;;9.29;100.00
31005;BME280;17676;52.254;4.490;2023-04-08T02:39:03;102489.28;;;9.30;100.00
31005;BME280;17676;52.254;4.490;2023-04-08T02:41:29;102486.22;;;9.25;100.00
31005;BME280;17676;52.254;4.490;2023-04-08T02:43:55;102486.53;;;9.22;100.00
31005;BME280;17676;52.254;4.490;2023-04-08T02:46:21;102488.88;;;9.17;100.00
31005;BME280;17676;52.254;4.490;2023-04-08T02:48:46;102487.50;;;9.13;100.00
31005;BME280;17676;52.254;4.490;2023-04-08T02:51:12;102491.81;;;9.06;100.00
31005;BME280;17676;52.254;4.490;2023-04-08T02:53:37;102487.03;;;9.00;100.00
31005;BME280;17676;52.254;4.490;2023-04-08T02:56:03;102493.78;;;8.96;100.00
31005;BME280;17676;52.254;4.490;2023-04-08T02:58:28;102493.94;;;8.94;100.00
31005;BME280;17676;52.254;4.490;2023-04-08T03:00:54;102496.44;;;8.88;100.00
31005;BME280;17676;52.254;4.490;2023-04-08T03:03:19;102498.88;;;8.81;100.00
31005;BME280;17676;52.254;4.490;2023-04-08T03:05:51;102491.88;;;8.71;100.00
31005;BME280;17676;52.254;4.490;2023-04-08T03:08:16;102502.38;;;8.74;100.00
31005;BME280;17676;52.254;4.490;2023-04-08T03:10:42;102506.22;;;8.71;100.00
31005;BME280;17676;52.254;4.490;2023-04-08T03:13:07;102498.06;;;8.63;100.00
31005;BME280;17676;52.254;4.490;2023-04-08T03:15:32;102503.69;;;8.70;100.00
31005;BME280;17676;52.254;4.490;2023-04-08T03:17:59;102512.09;;;8.67;100.00
31005;BME280;17676;52.254;4.490;2023-04-08T03:20:24;102517.47;;;8.67;100.00
31005;BME280;17676;52.254;4.490;2023-04-08T03:22:50;102499.75;;;8.64;100.00
31005;BME280;17676;52.254;4.490;2023-04-08T03:25:15;102507.91;;;8.55;100.00
31005;BME280;17676;52.254;4.490;2023-04-08T03:27:41;102509.66;;;8.56;100.00
31005;BME280;17676;52.254;4.490;2023-04-08T03:30:07;102505.16;;;8.47;100.00
31005;BME280;17676;52.254;4.490;2023-04-08T03:32:32;102508.56;;;8.49;100.00
31005;BME280;17676;52.254;4.490;2023-04-08T03:34:57;102517.25;;;8.43;100.00
31005;BME280;17676;52.254;4.490;2023-04-08T03:37:23;102515.47;;;8.34;100.00
31005;BME280;17676;52.254;4.490;2023-04-08T03:39:49;102521.88;;;8.33;100.00
31005;BME280;17676;52.254;4.490;2023-04-08T03:42:15;102506.16;;;8.19;100.00
31005;BME280;17676;52.254;4.490;2023-04-08T03:44:41;102510.16;;;8.15;100.00
31005;BME280;17676;52.254;4.490;2023-04-08T03:47:09;102528.59;;;8.19;100.00
31005;BME280;17676;52.254;4.490;2023-04-08T03:49:35;102522.09;;;8.12;100.00
31005;BME280;17676;52.254;4.490;2023-04-08T03:52:04;102530.34;;;8.11;100.00
31005;BME280;17676;52.254;4.490;2023-04-08T03:54:30;102520.63;;;8.00;100.00
31005;BME280;17676;52.254;4.490;2023-04-08T03:56:56;102514.16;;;7.93;100.00
31005;BME280;17676;52.254;4.490;2023-04-08T03:59:22;102529.88;;;7.98;100.00
31005;BME280;17676;52.254;4.490;2023-04-08T04:01:47;102532.16;;;7.93;100.00
31005;BME280;17676;52.254;4.490;2023-04-08T04:04:13;102533.91;;;7.84;100.00
31005;BME280;17676;52.254;4.490;2023-04-08T04:06:41;102540.69;;;7.88;100.00
31005;BME280;17676;52.254;4.490;2023-04-08T04:09:07;102538.47;;;7.84;100.00
31005;BME280;17676;52.254;4.490;2023-04-08T04:11:33;102533.06;;;7.84;100.00
31005;BME280;17676;52.254;4.490;2023-04-08T04:14:00;102544.38;;;7.87;100.00
31005;BME280;17676;52.254;4.490;2023-04-08T04:16:26;102544.94;;;7.91;100.00
31005;BME280;17676;52.254;4.490;2023-04-08T04:18:52;102549.25;;;7.84;100.00
31005;BME280;17676;52.254;4.490;2023-04-08T04:21:23;102556.31;;;7.85;100.00
31005;BME280;17676;52.254;4.490;2023-04-08T04:23:49;102552.22;;;7.81;100.00
31005;BME280;17676;52.254;4.490;2023-04-08T04:26:14;102550.03;;;7.67;100.00
31005;BME280;17676;52.254;4.490;2023-04-08T04:28:41;102559.41;;;7.63;100.00
31005;BME280;17676;52.254;4.490;2023-04-08T04:31:06;102560.41;;;7.52;100.00
31005;BME280;17676;52.254;4.490;2023-04-08T04:33:32;102553.94;;;7.36;100.00
31005;BME280;17676;52.254;4.490;2023-04-08T04:35:57;102563.03;;;7.35;100.00
31005;BME280;17676;52.254;4.490;2023-04-08T04:38:23;102561.91;;;7.28;100.00
31005;BME280;17676;52.254;4.490;2023-04-08T04:40:49;102558.50;;;7.16;100.00
31005;BME280;17676;52.254;4.490;2023-04-08T04:43:14;102545.50;;;6.93;100.00
31005;BME280;17676;52.254;4.490;2023-04-08T04:45:40;102551.28;;;6.98;100.00
31005;BME280;17676;52.254;4.490;2023-04-08T04:48:06;102571.28;;;7.05;100.00
31005;BME280;17676;52.254;4.490;2023-04-08T04:50:32;102587.28;;;6.97;100.00
31005;BME280;17676;52.254;4.490;2023-04-08T04:52:58;102595.09;;;7.00;100.00
31005;BME280;17676;52.254;4.490;2023-04-08T04:55:24;102578.06;;;6.99;100.00
31005;BME280;17676;52.254;4.490;2023-04-08T04:57:52;102593.69;;;7.05;100.00
31005;BME280;17676;52.254;4.490;2023-04-08T05:00:18;102584.19;;;6.92;100.00
31005;BME280;17676;52.254;4.490;2023-04-08T05:02:43;102593.81;;;6.94;100.00
31005;BME280;17676;52.254;4.490;2023-04-08T05:05:09;102594.66;;;6.85;100.00
31005;BME280;17676;52.254;4.490;2023-04-08T05:07:37;102594.50;;;6.68;100.00
31005;BME280;17676;52.254;4.490;2023-04-08T05:10:04;102593.50;;;6.69;100.00
31005;BME280;17676;52.254;4.490;2023-04-08T05:12:30;102600.16;;;6.65;100.00
31005;BME280;17676;52.254;4.490;2023-04-08T05:15:00;102595.91;;;6.62;100.00
31005;BME280;17676;52.254;4.490;2023-04-08T05:17:27;102596.16;;;6.50;100.00
31005;BME280;17676;52.254;4.490;2023-04-08T05:19:53;102605.09;;;6.50;100.00
31005;BME280;17676;52.254;4.490;2023-04-08T05:22:19;102602.94;;;6.35;100.00
31005;BME280;17676;52.254;4.490;2023-04-08T05:24:50;102604.91;;;6.33;100.00
31005;BME280;17676;52.254;4.490;2023-04-08T05:27:16;102604.44;;;6.18;100.00
31005;BME280;17676;52.254;4.490;2023-04-08T05:29:42;102610.00;;;6.26;100.00
31005;BME280;17676;52.254;4.490;2023-04-08T05:32:10;102620.22;;;6.42;100.00
31005;BME280;17676;52.254;4.490;2023-04-08T05:34:36;102625.88;;;6.39;100.00
31005;BME280;17676;52.254;4.490;2023-04-08T05:37:07;102621.59;;;6.27;100.00
31005;BME280;17676;52.254;4.490;2023-04-08T05:39:33;102623.69;;;6.23;100.00
31005;BME280;17676;52.254;4.490;2023-04-08T05:41:59;102640.03;;;6.41;100.00
31005;BME280;17676;52.254;4.490;2023-04-08T05:44:24;102631.53;;;6.36;100.00
31005;BME280;17676;52.254;4.490;2023-04-08T05:46:51;102640.09;;;6.60;100.00
31005;BME280;17676;52.254;4.490;2023-04-08T05:49:18;102630.69;;;6.45;100.00
31005;BME280;17676;52.254;4.490;2023-04-08T05:51:43;102646.00;;;6.54;100.00
31005;BME280;17676;52.254;4.490;2023-04-08T05:54:09;102642.06;;;6.58;100.00
31005;BME280;17676;52.254;4.490;2023-04-08T05:56:36;102642.38;;;6.74;100.00
31005;BME280;17676;52.254;4.490;2023-04-08T05:59:03;102655.00;;;6.73;100.00
31005;BME280;17676;52.254;4.490;2023-04-08T06:01:29;102650.00;;;6.69;100.00
31005;BME280;17676;52.254;4.490;2023-04-08T06:03:56;102653.72;;;6.77;100.00
31005;BME280;17676;52.254;4.490;2023-04-08T06:06:22;102654.00;;;6.84;100.00
31005;BME280;17676;52.254;4.490;2023-04-08T06:08:49;102643.81;;;6.97;100.00
31005;BME280;17676;52.254;4.490;2023-04-08T06:11:15;102664.22;;;7.28;100.00
31005;BME280;17676;52.254;4.490;2023-04-08T06:13:44;102656.56;;;7.14;100.00
31005;BME280;17676;52.254;4.490;2023-04-08T06:16:14;102659.25;;;7.14;100.00
31005;BME280;17676;52.254;4.490;2023-04-08T06:18:40;102649.50;;;7.13;100.00
31005;BME280;17676;52.254;4.490;2023-04-08T06:21:07;102646.94;;;7.21;100.00
31005;BME280;17676;52.254;4.490;2023-04-08T06:23:35;102660.41;;;7.30;100.00
31005;BME280;17676;52.254;4.490;2023-04-08T06:26:03;102663.97;;;7.21;100.00
31005;BME280;17676;52.254;4.490;2023-04-08T06:28:30;102659.97;;;7.35;100.00
31005;BME280;17676;52.254;4.490;2023-04-08T06:30:56;102653.72;;;7.63;100.00
31005;BME280;17676;52.254;4.490;2023-04-08T06:33:22;102654.81;;;7.70;100.00
31005;BME280;17676;52.254;4.490;2023-04-08T06:35:50;102666.16;;;7.73;100.00
31005;BME280;17676;52.254;4.490;2023-04-08T06:38:17;102659.03;;;7.82;100.00
31005;BME280;17676;52.254;4.490;2023-04-08T06:40:49;102674.06;;;7.75;100.00
31005;BME280;17676;52.254;4.490;2023-04-08T06:43:16;102673.75;;;7.97;100.00
31005;BME280;17676;52.254;4.490;2023-04-08T06:45:41;102662.44;;;7.84;100.00
31005;BME280;17676;52.254;4.490;2023-04-08T06:48:07;102668.66;;;7.84;100.00
31005;BME280;17676;52.254;4.490;2023-04-08T06:50:33;102668.69;;;8.30;100.00
31005;BME280;17676;52.254;4.490;2023-04-08T06:52:59;102674.25;;;8.29;100.00
31005;BME280;17676;52.254;4.490;2023-04-08T06:55:25;102650.25;;;8.53;100.00
31005;BME280;17676;52.254;4.490;2023-04-08T06:57:51;102659.97;;;8.90;100.00
31005;BME280;17676;52.254;4.490;2023-04-08T07:00:17;102650.69;;;8.75;100.00
31005;BME280;17676;52.254;4.490;2023-04-08T07:02:43;102675.94;;;9.19;100.00
31005;BME280;17676;52.254;4.490;2023-04-08T07:05:09;102667.69;;;9.20;100.00
31005;BME280;17676;52.254;4.490;2023-04-08T07:07:35;102645.69;;;8.98;100.00
31005;BME280;17676;52.254;4.490;2023-04-08T07:10:02;102653.72;;;9.25;100.00
31005;BME280;17676;52.254;4.490;2023-04-08T07:12:27;102650.94;;;9.17;100.00
31005;BME280;17676;52.254;4.490;2023-04-08T07:14:53;102646.44;;;9.08;100.00
31005;BME280;17676;52.254;4.490;2023-04-08T07:17:18;102642.66;;;9.36;100.00
31005;BME280;17676;52.254;4.490;2023-04-08T07:19:44;102643.19;;;9.57;100.00
31005;BME280;17676;52.254;4.490;2023-04-08T07:22:10;102636.63;;;9.85;100.00
31005;BME280;17676;52.254;4.490;2023-04-08T07:24:36;102638.56;;;10.26;100.00
31005;BME280;17676;52.254;4.490;2023-04-08T07:27:01;102618.41;;;10.62;100.00
31005;BME280;17676;52.254;4.490;2023-04-08T07:29:27;102634.41;;;11.69;100.00
31005;BME280;17676;52.254;4.490;2023-04-08T07:31:53;102647.25;;;12.54;100.00
31005;BME280;17676;52.254;4.490;2023-04-08T07:34:19;102624.47;;;14.04;100.00
31005;BME280;17676;52.254;4.490;2023-04-08T07:36:44;102603.91;;;15.38;100.00
31005;BME280;17676;52.254;4.490;2023-04-08T07:39:10;102588.22;;;16.48;100.00
31005;BME280;17676;52.254;4.490;2023-04-08T07:41:36;102547.56;;;17.25;100.00
31005;BME280;17676;52.254;4.490;2023-04-08T07:44:04;102533.50;;;17.47;100.00
31005;BME280;17676;52.254;4.490;2023-04-08T07:46:30;102549.66;;;17.23;100.00
31005;BME280;17676;52.254;4.490;2023-04-08T07:48:58;102546.75;;;17.57;100.00
31005;BME280;17676;52.254;4.490;2023-04-08T07:51:23;102541.84;;;16.21;100.00
31005;BME280;17676;52.254;4.490;2023-04-08T07:53:49;102552.41;;;16.37;100.00
31005;BME280;17676;52.254;4.490;2023-04-08T07:56:18;102542.50;;;17.35;100.00
31005;BME280;17676;52.254;4.490;2023-04-08T07:58:46;102502.50;;;17.47;100.00
31005;BME280;17676;52.254;4.490;2023-04-08T08:01:21;102507.06;;;17.92;100.00
31005;BME280;17676;52.254;4.490;2023-04-08T08:03:50;102470.91;;;17.64;100.00
31005;BME280;17676;52.254;4.490;2023-04-08T08:06:16;102435.00;;;17.85;100.00
31005;BME280;17676;52.254;4.490;2023-04-08T08:08:43;102426.44;;;18.50;100.00
31005;BME280;17676;52.254;4.490;2023-04-08T08:11:09;102443.25;;;18.60;100.00
31005;BME280;17676;52.254;4.490;2023-04-08T08:13:34;102446.72;;;18.05;100.00
31005;BME280;17676;52.254;4.490;2023-04-08T08:16:00;102440.53;;;17.72;100.00
31005;BME280;17676;52.254;4.490;2023-04-08T08:18:27;102446.03;;;17.59;100.00
31005;BME280;17676;52.254;4.490;2023-04-08T08:20:55;102460.31;;;17.80;100.00
31005;BME280;17676;52.254;4.490;2023-04-08T08:23:23;102452.00;;;17.17;100.00
31005;BME280;17676;52.254;4.490;2023-04-08T08:25:58;102459.16;;;17.11;100.00
31005;BME280;17676;52.254;4.490;2023-04-08T08:28:24;102453.38;;;17.78;100.00
31005;BME280;17676;52.254;4.490;2023-04-08T08:30:49;102469.03;;;17.19;100.00
31005;BME280;17676;52.254;4.490;2023-04-08T08:33:15;102457.78;;;16.23;100.00
31005;BME280;17676;52.254;4.490;2023-04-08T08:35:41;102466.31;;;16.86;100.00
31005;BME280;17676;52.254;4.490;2023-04-08T08:38:07;102473.19;;;17.80;100.00
31005;BME280;17676;52.254;4.490;2023-04-08T08:40:32;102485.16;;;17.92;100.00
31005;BME280;17676;52.254;4.490;2023-04-08T08:42:58;102471.88;;;18.33;100.00
31005;BME280;17676;52.254;4.490;2023-04-08T08:45:26;102460.34;;;18.62;100.00
31005;BME280;17676;52.254;4.490;2023-04-08T08:47:54;102469.06;;;19.33;100.00
31005;BME280;17676;52.254;4.490;2023-04-08T08:50:20;102483.28;;;18.30;100.00
31005;BME280;17676;52.254;4.490;2023-04-08T08:52:50;102475.19;;;18.79;100.00
31005;BME280;17676;52.254;4.490;2023-04-08T08:55:20;102473.38;;;19.65;100.00
31005;BME280;17676;52.254;4.490;2023-04-08T08:57:49;102472.06;;;20.03;100.00
31005;BME280;17676;52.254;4.490;2023-04-08T09:00:15;102483.03;;;20.69;100.00
31005;BME280;17676;52.254;4.490;2023-04-08T09:02:42;102473.28;;;19.53;100.00
31005;BME280;17676;52.254;4.490;2023-04-08T09:05:07;102481.63;;;18.91;100.00
31005;BME280;17676;52.254;4.490;2023-04-08T09:07:37;102481.22;;;19.43;100.00
31005;BME280;17676;52.254;4.490;2023-04-08T09:10:09;102489.38;;;20.10;100.00
31005;BME280;17676;52.254;4.490;2023-04-08T09:12:54;102482.75;;;19.75;100.00
31005;BME280;17676;52.254;4.490;2023-04-08T09:15:20;102492.09;;;18.45;100.00
31005;BME280;17676;52.254;4.490;2023-04-08T09:17:46;102495.13;;;18.17;100.00
31005;BME280;17676;52.254;4.490;2023-04-08T09:20:12;102477.72;;;19.54;100.00
31005;BME280;17676;52.254;4.490;2023-04-08T09:22:58;102506.44;;;19.94;100.00
31005;BME280;17676;52.254;4.490;2023-04-08T09:25:31;102493.75;;;19.75;100.00
31005;BME280;17676;52.254;4.490;2023-04-08T09:27:58;102502.22;;;19.92;100.00
31005;BME280;17676;52.254;4.490;2023-04-08T09:30:26;102514.47;;;21.02;100.00
31005;BME280;17676;52.254;4.490;2023-04-08T09:32:54;102503.53;;;20.84;100.00
31005;BME280;17676;52.254;4.490;2023-04-08T09:35:21;102520.25;;;20.06;100.00
31005;BME280;17676;52.254;4.490;2023-04-08T09:37:50;102509.19;;;20.60;100.00
31005;BME280;17676;52.254;4.490;2023-04-08T09:40:45;102518.28;;;20.60;100.00
31005;BME280;17676;52.254;4.490;2023-04-08T09:43:18;102507.16;;;20.37;100.00
31005;BME280;17676;52.254;4.490;2023-04-08T09:45:47;102511.28;;;20.76;100.00
31005;BME280;17676;52.254;4.490;2023-04-08T09:48:19;102499.34;;;20.52;100.00
31005;BME280;17676;52.254;4.490;2023-04-08T09:50:49;102498.13;;;20.48;100.00
31005;BME280;17676;52.254;4.490;2023-04-08T09:53:33;102526.97;;;21.05;100.00
31005;BME280;17676;52.254;4.490;2023-04-08T09:56:14;102512.06;;;20.94;100.00
31005;BME280;17676;52.254;4.490;2023-04-08T09:58:51;102524.25;;;21.51;100.00
31005;BME280;17676;52.254;4.490;2023-04-08T10:01:26;102499.69;;;20.74;100.00
31005;BME280;17676;52.254;4.490;2023-04-08T10:03:54;102503.69;;;19.94;100.00
31005;BME280;17676;52.254;4.490;2023-04-08T10:06:27;102509.63;;;19.73;100.00
31005;BME280;17676;52.254;4.490;2023-04-08T10:08:54;102499.94;;;19.71;100.00
31005;BME280;17676;52.254;4.490;2023-04-08T10:11:30;102517.03;;;22.07;100.00
31005;BME280;17676;52.254;4.490;2023-04-08T10:13:58;102515.88;;;21.80;100.00
31005;BME280;17676;52.254;4.490;2023-04-08T10:16:25;102525.09;;;21.74;100.00
31005;BME280;17676;52.254;4.490;2023-04-08T10:18:57;102495.66;;;22.14;100.00
31005;BME280;17676;52.254;4.490;2023-04-08T10:21:39;102520.44;;;21.63;100.00
31005;BME280;17676;52.254;4.490;2023-04-08T10:24:08;102511.88;;;21.30;100.00
31005;BME280;17676;52.254;4.490;2023-04-08T10:26:42;102504.84;;;22.87;100.00
31005;BME280;17676;52.254;4.490;2023-04-08T10:35:15;102498.19;;;22.16;100.00
31005;BME280;17676;52.254;4.490;2023-04-08T10:38:01;102508.66;;;23.48;100.00
31005;BME280;17676;52.254;4.490;2023-04-08T10:44:47;102518.84;;;22.02;100.00
31005;BME280;17676;52.254;4.490;2023-04-08T11:01:06;102515.13;;;22.75;100.00
31005;BME280;17676;52.254;4.490;2023-04-08T11:03:34;102524.53;;;22.35;100.00
31005;BME280;17676;52.254;4.490;2023-04-08T11:06:25;102527.19;;;21.03;100.00
31005;BME280;17676;52.254;4.490;2023-04-08T11:08:53;102528.22;;;22.40;100.00
31005;BME280;17676;52.254;4.490;2023-04-08T11:11:24;102506.53;;;21.81;100.00
31005;BME280;17676;52.254;4.490;2023-04-08T11:13:55;102527.13;;;22.41;100.00
31005;BME280;17676;52.254;4.490;2023-04-08T11:16:26;102508.44;;;21.92;100.00
31005;BME280;17676;52.254;4.490;2023-04-08T11:18:54;102504.94;;;21.28;100.00
31005;BME280;17676;52.254;4.490;2023-04-08T11:21:30;102503.06;;;20.87;100.00
31005;BME280;17676;52.254;4.490;2023-04-08T11:23:58;102491.75;;;20.95;100.00
31005;BME280;17676;52.254;4.490;2023-04-08T11:26:47;102512.69;;;21.08;100.00
31005;BME280;17676;52.254;4.490;2023-04-08T11:29:13;102512.59;;;20.73;100.00
31005;BME280;17676;52.254;4.490;2023-04-08T11:31:40;102507.22;;;21.19;100.00
31005;BME280;17676;52.254;4.490;2023-04-08T11:34:25;102501.34;;;21.04;100.00
31005;BME280;17676;52.254;4.490;2023-04-08T11:37:09;102515.31;;;20.62;100.00
31005;BME280;17676;52.254;4.490;2023-04-08T11:39:45;102494.50;;;20.36;100.00
31005;BME280;17676;52.254;4.490;2023-04-08T11:42:27;102492.97;;;19.50;100.00
31005;BME280;17676;52.254;4.490;2023-04-08T11:45:20;102487.34;;;19.63;100.00
31005;BME280;17676;52.254;4.490;2023-04-08T11:47:46;102498.69;;;20.39;100.00
31005;BME280;17676;52.254;4.490;2023-04-08T11:53:26;102496.28;;;21.01;100.00
31005;BME280;17676;52.254;4.490;2023-04-08T11:56:16;102516.69;;;20.23;100.00
31005;BME280;17676;52.254;4.490;2023-04-08T11:58:47;102482.00;;;19.68;100.00
31005;BME280;17676;52.254;4.490;2023-04-08T12:01:18;102476.66;;;20.09;100.00
31005;BME280;17676;52.254;4.490;2023-04-08T12:04:00;102501.28;;;19.44;100.00
31005;BME280;17676;52.254;4.490;2023-04-08T12:06:34;102500.13;;;19.02;100.00
31005;BME280;17676;52.254;4.490;2023-04-08T12:09:00;102501.50;;;19.42;100.00
31005;BME280;17676;52.254;4.490;2023-04-08T12:11:25;102504.00;;;19.19;100.00
31005;BME280;17676;52.254;4.490;2023-04-08T12:13:54;102511.16;;;18.95;100.00
31005;BME280;17676;52.254;4.490;2023-04-08T12:16:21;102512.69;;;19.16;100.00
31005;BME280;17676;52.254;4.490;2023-04-08T12:18:48;102501.66;;;19.65;100.00
31005;BME280;17676;52.254;4.490;2023-04-08T12:21:14;102508.34;;;19.76;96.70
31005;BME280;17676;52.254;4.490;2023-04-08T12:23:40;102507.34;;;19.88;93.78
31005;BME280;17676;52.254;4.490;2023-04-08T12:26:05;102508.22;;;19.46;99.77
31005;BME280;17676;52.254;4.490;2023-04-08T12:28:32;102499.34;;;19.26;100.00
31005;BME280;17676;52.254;4.490;2023-04-08T12:30:58;102505.00;;;19.49;95.23
31005;BME280;17676;52.254;4.490;2023-04-08T12:33:25;102500.59;;;19.48;96.93
31005;BME280;17676;52.254;4.490;2023-04-08T12:35:52;102512.66;;;19.65;98.20
31005;BME280;17676;52.254;4.490;2023-04-08T12:38:19;102502.72;;;19.46;94.44
31005;BME280;17676;52.254;4.490;2023-04-08T12:40:44;102494.53;;;19.15;97.94
31005;BME280;17676;52.254;4.490;2023-04-08T12:43:10;102492.28;;;18.81;100.00
31005;BME280;17676;52.254;4.490;2023-04-08T12:45:35;102499.88;;;18.79;99.83
31005;BME280;17676;52.254;4.490;2023-04-08T12:48:01;102495.91;;;18.31;97.78
31005;BME280;17676;52.254;4.490;2023-04-08T12:50:26;102481.31;;;17.99;100.00
31005;BME280;17676;52.254;4.490;2023-04-08T12:52:52;102498.22;;;17.83;100.00
31005;BME280;17676;52.254;4.490;2023-04-08T12:55:18;102502.53;;;17.40;100.00
31005;BME280;17676;52.254;4.490;2023-04-08T12:57:43;102495.34;;;17.59;100.00
31005;BME280;17676;52.254;4.490;2023-04-08T13:00:09;102490.09;;;17.38;100.00
31005;BME280;17676;52.254;4.490;2023-04-08T13:02:36;102498.09;;;17.33;100.00
31005;BME280;17676;52.254;4.490;2023-04-08T13:05:02;102496.22;;;17.46;100.00
31005;BME280;17676;52.254;4.490;2023-04-08T13:07:27;102494.50;;;17.65;100.00
31005;BME280;17676;52.254;4.490;2023-04-08T13:09:53;102491.97;;;17.31;100.00
31005;BME280;17676;52.254;4.490;2023-04-08T13:12:18;102497.25;;;17.26;100.00
31005;BME280;17676;52.254;4.490;2023-04-08T13:14:43;102491.34;;;17.68;100.00
31005;BME280;17676;52.254;4.490;2023-04-08T13:17:09;102497.88;;;17.15;100.00